Thompson Place, Washington
Current Conditions -  °F | °C
As of 2:54 PM on Saturday 25 Oct 2014 (Local Time) from KOLM Reporting Station
Light Rain Light Rain  
Wind Chill: 58°   Ceiling: 5500
Heat Index: 58°   Visibility: 5mi
Dew Point: 52°   Wind: 18mph
Humidity: 81%   Direction: 190°S
Pressure: 29.27"   Gusts: 33mph
Location:  46.9755°N, 122.872°W
Report Text: KOLM 252154Z 19016G29KT 5SM -RA SCT039 BKN055 OVC070 14/11 A2927 RMK AO2 PK WND 17029/2152 SLP912 P0002 T01440111
Loading
Personal Weather Stations






























Interactive Weather Map
Tropical Storm Tracking
New forecast layout! Learn more

10-Day Weather Forecast

Advertisements
Track Severe Weather on mobile